createdAt,value
2022-09-22T00:01:22.112Z,6.78
2022-09-22T00:03:55.793Z,6.81
2022-09-22T00:06:26.043Z,6.79
2022-09-22T00:08:56.154Z,6.86
2022-09-22T00:11:29.187Z,6.71
2022-09-22T00:14:00.022Z,6.76
2022-09-22T00:16:37.629Z,6.74
2022-09-22T00:19:18.350Z,6.67
2022-09-22T00:21:46.433Z,6.60
2022-09-22T00:24:14.123Z,6.61
2022-09-22T00:26:41.719Z,6.63
2022-09-22T00:29:10.807Z,6.57
2022-09-22T00:31:40.642Z,6.53
2022-09-22T00:34:08.837Z,6.53
2022-09-22T00:36:35.979Z,6.53
2022-09-22T00:39:02.989Z,6.58
2022-09-22T00:41:36.673Z,6.53
2022-09-22T00:44:40.388Z,6.56
2022-09-22T00:47:32.358Z,6.52
2022-09-22T00:50:09.410Z,6.48
2022-09-22T00:52:43.074Z,6.51
2022-09-22T00:55:19.193Z,6.49
2022-09-22T00:57:47.973Z,6.48
2022-09-22T01:00:16.358Z,6.47
2022-09-22T01:02:49.503Z,6.49
2022-09-22T01:05:18.353Z,6.46
2022-09-22T01:07:47.442Z,6.43
2022-09-22T01:10:14.824Z,6.48
2022-09-22T01:12:48.782Z,6.49
2022-09-22T01:15:35.183Z,6.47
2022-09-22T01:18:14.802Z,6.47
2022-09-22T01:20:50.755Z,6.34
2022-09-22T01:23:39.390Z,6.39
2022-09-22T01:26:20.522Z,6.32
2022-09-22T01:28:54.394Z,6.30
2022-09-22T01:31:37.832Z,6.26
2022-09-22T01:34:30.641Z,6.31
2022-09-22T01:37:14.149Z,6.25
2022-09-22T01:40:06.016Z,6.21
2022-09-22T01:42:46.989Z,6.20
2022-09-22T01:45:22.018Z,6.16
2022-09-22T01:47:57.924Z,6.13
2022-09-22T01:50:34.742Z,6.15
2022-09-22T01:53:07.728Z,6.14
2022-09-22T01:55:40.887Z,6.24
2022-09-22T01:58:11.109Z,6.28
2022-09-22T02:00:42.403Z,6.21
2022-09-22T02:03:25.050Z,6.20
2022-09-22T02:06:06.568Z,6.24
2022-09-22T02:08:58.066Z,6.27
2022-09-22T02:11:25.510Z,6.34
2022-09-22T02:13:53.355Z,6.27
2022-09-22T02:16:23.952Z,6.27
2022-09-22T02:19:13.078Z,6.16
2022-09-22T02:21:44.870Z,6.21
2022-09-22T02:24:33.794Z,6.18
2022-09-22T02:27:06.316Z,6.23
2022-09-22T02:29:38.383Z,6.13
2022-09-22T02:32:10.504Z,6.21
2022-09-22T02:34:38.214Z,6.32
2022-09-22T02:37:23.508Z,6.34
2022-09-22T02:40:03.904Z,6.38
2022-09-22T02:42:39.385Z,6.41
2022-09-22T02:45:14.106Z,6.41
2022-09-22T02:47:47.903Z,6.41
2022-09-22T02:50:18.976Z,6.49
2022-09-22T02:52:46.023Z,6.55
2022-09-22T02:55:14.395Z,6.57
2022-09-22T02:57:41.461Z,6.47
2022-09-22T03:00:09.130Z,6.43
2022-09-22T03:02:36.550Z,6.42
2022-09-22T03:05:04.420Z,6.47
2022-09-22T03:07:31.791Z,6.48
2022-09-22T03:09:58.804Z,6.45
2022-09-22T03:12:26.083Z,6.48
2022-09-22T03:14:53.158Z,6.55
2022-09-22T03:17:20.337Z,6.55
2022-09-22T03:19:47.357Z,6.49
2022-09-22T03:22:14.476Z,6.49
2022-09-22T03:24:41.490Z,6.66
2022-09-22T03:27:08.630Z,6.70
2022-09-22T03:29:35.745Z,6.77
2022-09-22T03:32:02.875Z,6.88
2022-09-22T03:34:29.896Z,6.91
2022-09-22T03:36:56.881Z,6.93
2022-09-22T03:39:23.905Z,6.94
2022-09-22T03:41:50.885Z,6.98
2022-09-22T03:44:18.445Z,6.95
2022-09-22T03:46:45.533Z,6.93
2022-09-22T03:49:15.854Z,6.91
2022-09-22T03:51:43.408Z,6.90
2022-09-22T03:54:10.520Z,6.96
2022-09-22T03:56:37.613Z,6.95
2022-09-22T03:59:04.790Z,6.97
2022-09-22T04:01:32.632Z,6.88
2022-09-22T04:03:59.683Z,6.89
2022-09-22T04:06:26.675Z,6.82
2022-09-22T04:08:54.033Z,6.86
2022-09-22T04:11:21.391Z,6.76
2022-09-22T04:13:48.355Z,6.83
2022-09-22T04:16:15.637Z,6.76
2022-09-22T04:18:43.912Z,6.85
2022-09-22T04:21:10.955Z,6.73
2022-09-22T04:23:37.993Z,6.68
2022-09-22T04:26:05.900Z,6.75
2022-09-22T04:28:33.418Z,6.76
2022-09-22T04:31:00.549Z,6.77
2022-09-22T04:33:28.032Z,6.86
2022-09-22T04:35:55.019Z,6.79
2022-09-22T04:38:22.040Z,6.78
2022-09-22T04:40:50.008Z,6.82
2022-09-22T04:43:16.949Z,6.83
2022-09-22T04:45:48.967Z,6.83
2022-09-22T04:48:17.138Z,6.92
2022-09-22T04:50:48.143Z,7.12
2022-09-22T04:53:15.933Z,7.14
2022-09-22T04:55:42.936Z,7.20
2022-09-22T04:58:10.173Z,7.31
2022-09-22T05:00:37.323Z,7.42
2022-09-22T05:03:14.897Z,7.50
2022-09-22T05:05:44.463Z,7.59
2022-09-22T05:08:11.569Z,7.71
2022-09-22T05:10:38.762Z,7.82
2022-09-22T05:13:06.105Z,7.88
2022-09-22T05:15:36.804Z,7.89
2022-09-22T05:18:03.912Z,7.96
2022-09-22T05:20:33.892Z,8.16
2022-09-22T05:23:01.078Z,8.27
2022-09-22T05:25:28.462Z,8.32
2022-09-22T05:27:57.028Z,8.37
2022-09-22T05:30:25.909Z,8.38
2022-09-22T05:32:53.842Z,8.58
2022-09-22T05:35:23.615Z,8.63
2022-09-22T05:37:52.412Z,8.82
2022-09-22T05:40:20.699Z,8.89
2022-09-22T05:42:49.777Z,8.98
2022-09-22T05:45:18.481Z,9.09
2022-09-22T05:47:45.656Z,9.18
2022-09-22T05:50:15.242Z,9.27
2022-09-22T05:52:42.611Z,9.44
2022-09-22T05:55:10.870Z,9.45
2022-09-22T05:57:37.845Z,9.45
2022-09-22T06:00:06.945Z,9.49
2022-09-22T06:02:33.963Z,9.53
2022-09-22T06:05:01.365Z,9.58
2022-09-22T06:07:31.059Z,9.61
2022-09-22T06:09:58.093Z,9.70
2022-09-22T06:12:25.358Z,9.72
2022-09-22T06:14:52.307Z,9.76
2022-09-22T06:17:19.235Z,9.84
2022-09-22T06:19:50.519Z,9.90
2022-09-22T06:22:22.146Z,9.83
2022-09-22T06:24:51.588Z,9.94
2022-09-22T06:27:20.369Z,10.09
2022-09-22T06:29:49.098Z,10.24
2022-09-22T06:32:19.956Z,10.68
2022-09-22T06:34:48.675Z,11.28
2022-09-22T06:37:17.984Z,11.80
2022-09-22T06:39:46.561Z,12.18
2022-09-22T06:42:18.257Z,12.41
2022-09-22T06:44:47.842Z,12.47
2022-09-22T06:47:17.032Z,12.46
2022-09-22T06:49:45.327Z,12.59
2022-09-22T06:52:17.626Z,12.75
2022-09-22T06:54:46.397Z,12.82
2022-09-22T06:57:15.071Z,12.77
2022-09-22T06:59:45.054Z,12.67
2022-09-22T07:02:13.829Z,12.71
2022-09-22T07:04:44.705Z,12.84
2022-09-22T07:07:13.678Z,12.84
2022-09-22T07:09:42.801Z,12.94
2022-09-22T07:12:11.356Z,12.97
2022-09-22T07:14:38.393Z,13.09
2022-09-22T07:17:05.657Z,13.15
2022-09-22T07:19:35.753Z,13.17
2022-09-22T07:22:03.516Z,13.18
2022-09-22T07:24:30.446Z,13.11
2022-09-22T07:26:58.324Z,13.14
2022-09-22T07:29:25.513Z,13.43
2022-09-22T07:31:53.916Z,13.74
2022-09-22T07:34:20.932Z,13.83
2022-09-22T07:36:49.890Z,14.05
2022-09-22T07:39:17.027Z,14.05
2022-09-22T07:41:44.176Z,14.07
2022-09-22T07:44:31.991Z,14.12
2022-09-22T07:46:59.443Z,14.13
2022-09-22T07:49:27.126Z,14.09
2022-09-22T07:51:58.134Z,14.10
2022-09-22T07:54:26.265Z,14.05
2022-09-22T07:56:58.918Z,14.04
2022-09-22T07:59:26.447Z,13.97
2022-09-22T08:01:54.094Z,13.89
2022-09-22T08:04:26.793Z,14.00
2022-09-22T08:06:57.953Z,14.09
2022-09-22T08:09:26.188Z,14.22
2022-09-22T08:11:53.657Z,14.37
2022-09-22T08:14:23.871Z,14.45
2022-09-22T08:16:53.904Z,14.63
2022-09-22T08:19:23.516Z,14.70
2022-09-22T08:21:53.247Z,14.65
2022-09-22T08:24:24.197Z,14.57
2022-09-22T08:26:57.038Z,14.50
2022-09-22T08:29:26.271Z,14.56
2022-09-22T08:31:55.675Z,14.61
2022-09-22T08:34:25.764Z,14.68
2022-09-22T08:36:55.343Z,14.84
2022-09-22T08:39:23.557Z,14.93
2022-09-22T08:42:11.255Z,15.07
2022-09-22T08:45:26.228Z,15.54
2022-09-22T08:48:25.156Z,15.69
2022-09-22T08:51:18.567Z,15.72
2022-09-22T08:53:51.384Z,15.52
2022-09-22T08:56:43.642Z,15.40
2022-09-22T09:00:00.295Z,15.30
2022-09-22T09:02:30.052Z,15.24
2022-09-22T09:05:13.272Z,15.16
2022-09-22T09:08:09.542Z,15.18
2022-09-22T09:10:57.448Z,15.24
2022-09-22T09:13:51.832Z,15.10
2022-09-22T09:16:37.945Z,14.97
2022-09-22T09:19:22.775Z,15.11
2022-09-22T09:21:59.492Z,15.39
2022-09-22T09:27:40.903Z,15.40
2022-09-22T09:30:16.709Z,15.59
2022-09-22T09:33:02.183Z,15.81
2022-09-22T09:35:42.076Z,15.82
2022-09-22T09:38:15.727Z,15.83
2022-09-22T09:40:56.988Z,16.03
2022-09-22T09:43:29.344Z,16.05
2022-09-22T09:46:19.882Z,15.85
2022-09-22T09:49:26.308Z,15.91
2022-09-22T09:52:04.234Z,16.13
2022-09-22T09:54:33.819Z,16.73
2022-09-22T09:57:11.802Z,17.26
2022-09-22T10:00:02.085Z,17.29
2022-09-22T10:02:40.643Z,16.96
2022-09-22T10:05:32.755Z,16.77
2022-09-22T10:08:22.333Z,16.55
2022-09-22T10:10:59.360Z,16.49
2022-09-22T10:13:32.634Z,16.23
2022-09-22T10:16:10.460Z,16.21
2022-09-22T10:18:41.764Z,16.54
2022-09-22T10:21:24.205Z,16.69
2022-09-22T10:23:56.366Z,16.67
2022-09-22T10:26:33.284Z,16.63
2022-09-22T10:29:20.173Z,16.53
2022-09-22T10:32:05.414Z,16.42
2022-09-22T10:34:37.419Z,16.34
2022-09-22T10:37:11.409Z,16.21
2022-09-22T10:39:50.305Z,16.03
2022-09-22T10:42:32.828Z,15.92
2022-09-22T10:45:20.604Z,15.97
2022-09-22T10:47:51.551Z,16.35
2022-09-22T10:50:46.124Z,16.80
2022-09-22T10:53:28.629Z,17.23
2022-09-22T10:56:10.161Z,17.63
2022-09-22T10:58:47.514Z,17.71
2022-09-22T11:01:39.962Z,17.90
2022-09-22T11:04:41.604Z,18.14
2022-09-22T11:07:38.153Z,18.45
2022-09-22T11:10:55.194Z,18.40
2022-09-22T11:13:40.603Z,18.45
2022-09-22T11:16:28.088Z,18.46
2022-09-22T11:19:13.781Z,18.12
2022-09-22T11:22:21.611Z,17.76
2022-09-22T11:25:00.876Z,17.53
2022-09-22T11:27:44.721Z,17.23
2022-09-22T11:30:20.710Z,17.11
2022-09-22T11:33:03.630Z,17.07
2022-09-22T11:35:43.327Z,16.94
2022-09-22T11:38:37.065Z,16.79
2022-09-22T11:41:12.783Z,16.81
2022-09-22T11:44:18.984Z,16.73
2022-09-22T11:46:56.430Z,16.74
2022-09-22T11:49:55.708Z,16.67
2022-09-22T11:52:49.246Z,16.67
2022-09-22T11:55:24.199Z,16.70
2022-09-22T11:57:57.498Z,16.94
2022-09-22T12:00:29.809Z,17.07
2022-09-22T12:03:17.330Z,17.41
2022-09-22T12:05:58.698Z,17.68
2022-09-22T12:08:40.407Z,17.60
2022-09-22T12:11:14.099Z,17.33
2022-09-22T12:13:45.529Z,17.24
2022-09-22T12:16:33.438Z,17.13
2022-09-22T12:19:13.558Z,17.02
2022-09-22T12:22:12.984Z,17.03
2022-09-22T12:24:40.240Z,16.80
2022-09-22T12:27:13.019Z,16.88
2022-09-22T12:29:40.218Z,17.11
2022-09-22T12:32:26.557Z,17.35
2022-09-22T12:34:57.863Z,17.31
2022-09-22T12:37:39.404Z,17.38
2022-09-22T12:40:18.935Z,17.42
2022-09-22T12:42:50.985Z,17.40
2022-09-22T12:45:36.965Z,17.41
2022-09-22T12:48:12.002Z,17.49
2022-09-22T12:50:42.144Z,17.74
2022-09-22T12:53:28.265Z,17.89
2022-09-22T12:55:57.060Z,18.02
2022-09-22T12:58:24.402Z,17.90
2022-09-22T13:00:56.621Z,17.73
2022-09-22T13:03:26.907Z,17.55
2022-09-22T13:06:23.274Z,17.44
2022-09-22T13:08:53.030Z,17.36
2022-09-22T13:11:40.638Z,17.33
2022-09-22T13:14:46.718Z,17.25
2022-09-22T13:17:42.402Z,16.88
2022-09-22T13:20:18.296Z,16.56
2022-09-22T13:22:46.893Z,16.24
2022-09-22T13:25:31.810Z,15.81
2022-09-22T13:28:17.825Z,15.17
2022-09-22T13:30:46.457Z,14.52
2022-09-22T13:33:26.233Z,13.88
2022-09-22T13:36:04.547Z,13.58
2022-09-22T13:38:35.416Z,13.44
2022-09-22T13:41:03.643Z,13.51
2022-09-22T13:43:37.547Z,13.50
2022-09-22T13:46:06.712Z,13.53
2022-09-22T13:48:37.077Z,13.56
2022-09-22T13:51:10.738Z,13.65
2022-09-22T13:53:38.868Z,13.86
2022-09-22T13:56:12.809Z,14.00
2022-09-22T13:58:44.068Z,14.03
2022-09-22T14:01:17.013Z,13.99
2022-09-22T14:03:44.848Z,14.00
2022-09-22T14:06:16.275Z,13.94
2022-09-22T14:08:45.287Z,13.97
2022-09-22T14:11:28.930Z,14.02
2022-09-22T14:13:58.815Z,14.05
2022-09-22T14:16:34.921Z,14.04
2022-09-22T14:19:04.777Z,14.14
2022-09-22T14:21:34.111Z,14.01
2022-09-22T14:24:02.088Z,13.92
2022-09-22T14:26:33.823Z,14.02
2022-09-22T14:29:19.817Z,14.05
2022-09-22T14:31:53.861Z,14.21
2022-09-22T14:34:25.862Z,14.16
2022-09-22T14:36:54.489Z,14.12
2022-09-22T14:39:31.845Z,14.10
2022-09-22T14:42:10.927Z,14.03
2022-09-22T14:44:50.714Z,13.97
2022-09-22T14:47:25.339Z,14.00
2022-09-22T14:50:21.223Z,13.92
2022-09-22T14:53:24.070Z,13.87
2022-09-22T14:55:57.954Z,13.92
2022-09-22T14:58:35.315Z,13.91
2022-09-22T15:01:43.051Z,13.90
2022-09-22T15:04:24.286Z,13.89
2022-09-22T15:06:58.550Z,13.78
2022-09-22T15:09:32.631Z,13.80
2022-09-22T15:12:04.082Z,13.77
2022-09-22T15:18:03.519Z,13.61
2022-09-22T15:20:36.461Z,13.47
2022-09-22T15:23:05.424Z,13.36
2022-09-22T15:25:33.706Z,13.37
2022-09-22T15:28:02.926Z,13.26
2022-09-22T15:30:36.381Z,13.26
2022-09-22T15:33:04.069Z,13.28
2022-09-22T15:35:37.693Z,13.21
2022-09-22T15:38:13.053Z,13.20
2022-09-22T15:40:40.090Z,13.15
2022-09-22T15:43:13.366Z,13.13
2022-09-22T15:45:48.113Z,13.16
2022-09-22T15:48:29.551Z,13.06
2022-09-22T15:50:58.441Z,12.93
2022-09-22T15:53:25.452Z,12.83
2022-09-22T15:55:54.735Z,12.69
2022-09-22T15:58:25.745Z,12.69
2022-09-22T16:00:53.444Z,12.54
2022-09-22T16:03:24.133Z,12.52
2022-09-22T16:05:57.612Z,12.43
2022-09-22T16:08:42.073Z,12.33
2022-09-22T16:11:14.942Z,12.31
2022-09-22T16:13:42.648Z,12.29
2022-09-22T16:16:10.836Z,12.15
2022-09-22T16:18:40.014Z,12.08
2022-09-22T16:21:27.980Z,11.93
2022-09-22T16:24:00.519Z,11.91
2022-09-22T16:26:31.969Z,11.80
2022-09-22T16:28:59.687Z,11.74
2022-09-22T16:31:27.902Z,11.60
2022-09-22T16:33:57.007Z,11.54
2022-09-22T16:36:28.945Z,11.42
2022-09-22T16:38:56.694Z,11.33
2022-09-22T16:41:29.624Z,11.27
2022-09-22T16:43:58.318Z,11.16
2022-09-22T16:46:27.195Z,11.05
2022-09-22T16:49:05.528Z,10.96
2022-09-22T16:51:35.806Z,10.89
2022-09-22T16:54:05.875Z,10.86
2022-09-22T16:56:35.759Z,10.85
2022-09-22T16:59:03.080Z,10.74
2022-09-22T17:01:32.676Z,10.67
2022-09-22T17:03:59.687Z,10.63
2022-09-22T17:06:27.993Z,10.59
2022-09-22T17:08:57.641Z,10.47
2022-09-22T17:11:36.197Z,10.32
2022-09-22T17:14:12.725Z,10.33
2022-09-22T17:16:56.575Z,10.34
2022-09-22T17:19:28.026Z,10.29
2022-09-22T17:21:56.211Z,10.24
2022-09-22T17:24:24.798Z,10.06
2022-09-22T17:26:55.544Z,10.03
2022-09-22T17:29:32.367Z,9.84
2022-09-22T17:32:03.185Z,9.75
2022-09-22T17:34:33.218Z,9.77
2022-09-22T17:37:01.505Z,9.69
2022-09-22T17:39:29.862Z,9.66
2022-09-22T17:41:57.415Z,9.69
2022-09-22T17:44:29.331Z,9.54
2022-09-22T17:47:15.075Z,9.50
2022-09-22T17:50:00.821Z,9.45
2022-09-22T17:52:34.009Z,9.33
2022-09-22T17:55:09.778Z,9.27
2022-09-22T17:57:42.873Z,9.24
2022-09-22T18:00:16.882Z,9.20
2022-09-22T18:02:45.075Z,9.22
2022-09-22T18:05:14.770Z,9.24
2022-09-22T18:07:42.967Z,9.23
2022-09-22T18:10:16.026Z,9.30
2022-09-22T18:12:44.608Z,9.16
2022-09-22T18:15:13.585Z,9.11
2022-09-22T18:17:43.133Z,9.03
2022-09-22T18:20:16.438Z,9.05
2022-09-22T18:22:48.356Z,9.02
2022-09-22T18:25:20.812Z,9.01
2022-09-22T18:27:50.805Z,8.98
2022-09-22T18:30:19.540Z,8.86
2022-09-22T18:32:48.188Z,8.88
2022-09-22T18:35:15.463Z,8.80
2022-09-22T18:37:43.173Z,8.72
2022-09-22T18:40:12.846Z,8.72
2022-09-22T18:42:40.746Z,8.73
2022-09-22T18:45:08.154Z,8.64
2022-09-22T18:47:40.023Z,8.63
2022-09-22T18:50:07.791Z,8.60
2022-09-22T18:52:34.837Z,8.54
2022-09-22T18:55:05.094Z,8.56
2022-09-22T18:57:32.416Z,8.53
2022-09-22T19:00:01.376Z,8.44
2022-09-22T19:02:28.853Z,8.41
2022-09-22T19:04:56.007Z,8.47
2022-09-22T19:07:42.071Z,8.42
2022-09-22T19:10:19.294Z,8.41
2022-09-22T19:12:46.437Z,8.39
2022-09-22T19:15:16.971Z,8.40
2022-09-22T19:17:46.237Z,8.36
2022-09-22T19:20:21.482Z,8.34
2022-09-22T19:22:50.706Z,8.32
2022-09-22T19:25:19.320Z,8.34
2022-09-22T19:27:46.446Z,8.36
2022-09-22T19:30:13.913Z,8.35
2022-09-22T19:32:41.430Z,8.36
2022-09-22T19:35:09.419Z,8.31
2022-09-22T19:37:36.510Z,8.18
2022-09-22T19:40:09.124Z,8.15
2022-09-22T19:42:40.310Z,8.13
2022-09-22T19:45:08.288Z,8.05
2022-09-22T19:47:35.537Z,8.04
2022-09-22T19:50:03.482Z,8.06
2022-09-22T19:52:30.255Z,8.05
2022-09-22T19:54:57.574Z,7.96
2022-09-22T19:57:24.594Z,7.91
2022-09-22T19:59:51.627Z,7.86
2022-09-22T20:02:20.696Z,7.94
2022-09-22T20:04:47.629Z,7.95
2022-09-22T20:07:15.062Z,8.02
2022-09-22T20:09:42.523Z,7.97
2022-09-22T20:12:09.677Z,8.00
2022-09-22T20:14:37.106Z,7.93
2022-09-22T20:17:07.469Z,7.92
2022-09-22T20:19:40.104Z,7.89
2022-09-22T20:22:25.610Z,7.83
2022-09-22T20:24:58.183Z,7.83
2022-09-22T20:27:31.631Z,7.83
2022-09-22T20:29:59.510Z,7.82
2022-09-22T20:32:29.143Z,7.83
2022-09-22T20:34:56.315Z,7.76
2022-09-22T20:37:25.160Z,7.75
2022-09-22T20:39:52.984Z,7.77
2022-09-22T20:42:20.436Z,7.72
2022-09-22T20:44:53.990Z,7.62
2022-09-22T20:47:23.511Z,7.65
2022-09-22T20:49:52.103Z,7.56
2022-09-22T20:52:20.482Z,7.52
2022-09-22T20:54:48.406Z,7.51
2022-09-22T20:57:16.757Z,7.39
2022-09-22T20:59:48.143Z,7.43
2022-09-22T21:02:16.076Z,7.40
2022-09-22T21:04:43.152Z,7.43
2022-09-22T21:07:11.669Z,7.26
2022-09-22T21:09:57.269Z,7.18
2022-09-22T21:12:30.810Z,7.05
2022-09-22T21:14:58.652Z,7.08
2022-09-22T21:17:28.043Z,7.01
2022-09-22T21:19:58.095Z,7.03
2022-09-22T21:22:28.385Z,7.05
2022-09-22T21:24:59.787Z,7.12
2022-09-22T21:27:36.739Z,7.18
2022-09-22T21:30:05.738Z,7.09
2022-09-22T21:32:32.816Z,7.08
2022-09-22T21:35:00.141Z,7.09
2022-09-22T21:37:28.364Z,7.12
2022-09-22T21:40:02.714Z,7.09
2022-09-22T21:42:31.559Z,7.07
2022-09-22T21:44:58.668Z,7.02
2022-09-22T21:47:25.676Z,7.01
2022-09-22T21:50:08.639Z,7.03
2022-09-22T21:52:38.976Z,7.06
2022-09-22T21:55:06.631Z,7.05
2022-09-22T21:57:33.559Z,7.02
2022-09-22T22:00:00.659Z,6.99
2022-09-22T22:02:27.723Z,7.01
2022-09-22T22:04:56.135Z,7.04
2022-09-22T22:07:23.117Z,6.97
2022-09-22T22:09:50.039Z,6.94
2022-09-22T22:12:17.028Z,6.91
2022-09-22T22:14:47.452Z,6.88
2022-09-22T22:17:14.409Z,6.89
2022-09-22T22:19:41.375Z,6.84
2022-09-22T22:22:08.473Z,6.82
2022-09-22T22:24:42.604Z,6.83
2022-09-22T22:27:11.397Z,6.80
2022-09-22T22:29:41.509Z,6.75
2022-09-22T22:32:10.724Z,6.76
2022-09-22T22:34:38.147Z,6.74
2022-09-22T22:37:09.200Z,6.73
2022-09-22T22:39:36.302Z,6.74
2022-09-22T22:42:03.365Z,6.80
2022-09-22T22:44:30.366Z,6.79
2022-09-22T22:46:57.491Z,6.77
2022-09-22T22:49:24.627Z,6.72
2022-09-22T22:51:52.495Z,6.71
2022-09-22T22:54:19.619Z,6.77
2022-09-22T22:56:50.936Z,6.73
2022-09-22T22:59:18.444Z,6.78
2022-09-22T23:01:45.586Z,6.79
2022-09-22T23:04:12.805Z,6.83
2022-09-22T23:06:44.338Z,6.75
2022-09-22T23:09:14.559Z,6.73
2022-09-22T23:11:42.504Z,6.73
2022-09-22T23:14:11.900Z,6.70
2022-09-22T23:16:50.234Z,6.76
2022-09-22T23:19:18.416Z,6.70
2022-09-22T23:21:46.518Z,6.76
2022-09-22T23:24:16.791Z,6.72
2022-09-22T23:26:45.645Z,6.74
2022-09-22T23:29:12.866Z,6.82
2022-09-22T23:31:40.110Z,6.70
2022-09-22T23:34:07.367Z,6.66
2022-09-22T23:36:34.971Z,6.61
2022-09-22T23:39:04.313Z,6.65
2022-09-22T23:41:33.446Z,6.64
2022-09-22T23:44:00.713Z,6.69
2022-09-22T23:46:28.316Z,6.75
2022-09-22T23:48:55.994Z,6.74
2022-09-22T23:51:23.503Z,6.71
2022-09-22T23:53:50.759Z,6.71
2022-09-22T23:56:17.715Z,6.64
2022-09-22T23:58:45.640Z,6.68
